sensor_id;sensor_type;location;lat;lon;timestamp;temperature;humidity
70867;HTU21D;58487;53.474;49.470;2023-10-19T00:01:22;7.88;77.76
70867;HTU21D;58487;53.474;49.470;2023-10-19T00:03:52;7.91;75.07
70867;HTU21D;58487;53.474;49.470;2023-10-19T00:06:22;7.92;75.48
70867;HTU21D;58487;53.474;49.470;2023-10-19T00:08:49;7.86;76.04
70867;HTU21D;58487;53.474;49.470;2023-10-19T00:11:18;8.02;74.56
70867;HTU21D;58487;53.474;49.470;2023-10-19T00:13:48;8.02;74.03
70867;HTU21D;58487;53.474;49.470;2023-10-19T00:16:20;8.02;72.66
70867;HTU21D;58487;53.474;49.470;2023-10-19T00:18:51;7.94;75.04
70867;HTU21D;58487;53.474;49.470;2023-10-19T00:21:18;7.89;73.69
70867;HTU21D;58487;53.474;49.470;2023-10-19T00:23:57;7.82;73.66
70867;HTU21D;58487;53.474;49.470;2023-10-19T00:26:26;7.73;77.69
70867;HTU21D;58487;53.474;49.470;2023-10-19T00:28:55;7.64;73.88
70867;HTU21D;58487;53.474;49.470;2023-10-19T00:31:25;7.73;75.85
70867;HTU21D;58487;53.474;49.470;2023-10-19T00:33:55;7.72;76.10
70867;HTU21D;58487;53.474;49.470;2023-10-19T00:36:21;7.71;75.46
70867;HTU21D;58487;53.474;49.470;2023-10-19T00:38:48;7.68;75.52
70867;HTU21D;58487;53.474;49.470;2023-10-19T00:41:16;7.70;77.68
70867;HTU21D;58487;53.474;49.470;2023-10-19T00:43:47;7.78;75.86
70867;HTU21D;58487;53.474;49.470;2023-10-19T00:46:23;7.72;72.96
70867;HTU21D;58487;53.474;49.470;2023-10-19T00:48:59;7.68;75.73
70867;HTU21D;58487;53.474;49.470;2023-10-19T00:51:28;7.68;75.40
70867;HTU21D;58487;53.474;49.470;2023-10-19T00:54:11;7.71;76.01
70867;HTU21D;58487;53.474;49.470;2023-10-19T00:56:42;7.76;76.49
70867;HTU21D;58487;53.474;49.470;2023-10-19T00:59:17;7.68;75.24
70867;HTU21D;58487;53.474;49.470;2023-10-19T01:01:46;7.69;75.99
70867;HTU21D;58487;53.474;49.470;2023-10-19T01:04:15;7.67;78.44
70867;HTU21D;58487;53.474;49.470;2023-10-19T01:06:51;7.65;75.25
70867;HTU21D;58487;53.474;49.470;2023-10-19T01:09:47;7.63;73.78
70867;HTU21D;58487;53.474;49.470;2023-10-19T01:12:13;7.65;74.67
70867;HTU21D;58487;53.474;49.470;2023-10-19T01:15:11;7.65;75.29
70867;HTU21D;58487;53.474;49.470;2023-10-19T01:17:51;7.70;74.33
70867;HTU21D;58487;53.474;49.470;2023-10-19T01:20:31;7.69;77.17
70867;HTU21D;58487;53.474;49.470;2023-10-19T01:23:02;7.68;74.93
70867;HTU21D;58487;53.474;49.470;2023-10-19T01:25:58;7.58;75.31
70867;HTU21D;58487;53.474;49.470;2023-10-19T01:28:32;7.56;74.42
70867;HTU21D;58487;53.474;49.470;2023-10-19T01:31:09;7.54;77.19
70867;HTU21D;58487;53.474;49.470;2023-10-19T01:33:49;7.48;75.63
70867;HTU21D;58487;53.474;49.470;2023-10-19T01:36:16;7.49;76.98
70867;HTU21D;58487;53.474;49.470;2023-10-19T01:38:47;7.46;76.12
70867;HTU21D;58487;53.474;49.470;2023-10-19T01:41:14;7.45;76.60
70867;HTU21D;58487;53.474;49.470;2023-10-19T01:43:44;7.50;77.05
70867;HTU21D;58487;53.474;49.470;2023-10-19T01:46:13;7.53;75.54
70867;HTU21D;58487;53.474;49.470;2023-10-19T01:48:48;7.56;74.98
70867;HTU21D;58487;53.474;49.470;2023-10-19T01:51:19;7.42;76.68
70867;HTU21D;58487;53.474;49.470;2023-10-19T01:53:46;7.35;75.28
70867;HTU21D;58487;53.474;49.470;2023-10-19T01:56:14;7.33;76.11
70867;HTU21D;58487;53.474;49.470;2023-10-19T01:58:42;7.18;73.60
70867;HTU21D;58487;53.474;49.470;2023-10-19T02:01:10;7.18;76.95
70867;HTU21D;58487;53.474;49.470;2023-10-19T02:03:42;7.20;75.63
70867;HTU21D;58487;53.474;49.470;2023-10-19T02:06:13;7.18;75.78
70867;HTU21D;58487;53.474;49.470;2023-10-19T02:08:56;7.28;76.47
70867;HTU21D;58487;53.474;49.470;2023-10-19T02:11:24;7.22;73.54
70867;HTU21D;58487;53.474;49.470;2023-10-19T02:13:53;7.27;73.75
70867;HTU21D;58487;53.474;49.470;2023-10-19T02:16:26;7.25;74.45
70867;HTU21D;58487;53.474;49.470;2023-10-19T02:18:55;7.19;74.29
70867;HTU21D;58487;53.474;49.470;2023-10-19T02:21:22;7.24;75.95
70867;HTU21D;58487;53.474;49.470;2023-10-19T02:23:48;7.23;76.06
70867;HTU21D;58487;53.474;49.470;2023-10-19T02:26:20;7.26;77.19
70867;HTU21D;58487;53.474;49.470;2023-10-19T02:28:49;7.17;75.11
70867;HTU21D;58487;53.474;49.470;2023-10-19T02:31:17;7.05;74.99
70867;HTU21D;58487;53.474;49.470;2023-10-19T02:33:51;7.15;75.67
70867;HTU21D;58487;53.474;49.470;2023-10-19T02:36:18;7.15;74.61
70867;HTU21D;58487;53.474;49.470;2023-10-19T02:38:48;7.25;77.08
70867;HTU21D;58487;53.474;49.470;2023-10-19T02:41:18;7.20;75.42
70867;HTU21D;58487;53.474;49.470;2023-10-19T02:43:46;7.18;73.85
70867;HTU21D;58487;53.474;49.470;2023-10-19T02:46:13;7.13;73.26
70867;HTU21D;58487;53.474;49.470;2023-10-19T02:48:39;7.13;75.46
70867;HTU21D;58487;53.474;49.470;2023-10-19T02:51:11;7.17;75.78
70867;HTU21D;58487;53.474;49.470;2023-10-19T02:53:41;7.04;73.78
70867;HTU21D;58487;53.474;49.470;2023-10-19T02:56:15;7.00;77.43
70867;HTU21D;58487;53.474;49.470;2023-10-19T02:58:49;6.98;74.39
70867;HTU21D;58487;53.474;49.470;2023-10-19T03:01:19;6.90;73.86
70867;HTU21D;58487;53.474;49.470;2023-10-19T03:03:51;6.87;75.22
70867;HTU21D;58487;53.474;49.470;2023-10-19T03:06:21;6.81;74.73
70867;HTU21D;58487;53.474;49.470;2023-10-19T03:08:48;6.68;76.09
70867;HTU21D;58487;53.474;49.470;2023-10-19T03:11:21;6.60;74.73
70867;HTU21D;58487;53.474;49.470;2023-10-19T03:13:47;6.57;75.30
70867;HTU21D;58487;53.474;49.470;2023-10-19T03:16:17;6.58;76.93
70867;HTU21D;58487;53.474;49.470;2023-10-19T03:18:43;6.51;76.24
70867;HTU21D;58487;53.474;49.470;2023-10-19T03:21:09;6.44;76.14
70867;HTU21D;58487;53.474;49.470;2023-10-19T03:23:37;6.44;77.89
70867;HTU21D;58487;53.474;49.470;2023-10-19T03:26:04;6.37;76.50
70867;HTU21D;58487;53.474;49.470;2023-10-19T03:28:49;6.36;76.68
70867;HTU21D;58487;53.474;49.470;2023-10-19T03:31:24;6.39;76.44
70867;HTU21D;58487;53.474;49.470;2023-10-19T03:33:53;6.38;76.04
70867;HTU21D;58487;53.474;49.470;2023-10-19T03:36:21;6.37;75.79
70867;HTU21D;58487;53.474;49.470;2023-10-19T03:38:48;6.44;77.96
70867;HTU21D;58487;53.474;49.470;2023-10-19T03:41:17;6.51;76.78
70867;HTU21D;58487;53.474;49.470;2023-10-19T03:43:48;6.46;75.91
70867;HTU21D;58487;53.474;49.470;2023-10-19T03:46:15;6.40;75.19
70867;HTU21D;58487;53.474;49.470;2023-10-19T03:48:55;6.42;74.77
70867;HTU21D;58487;53.474;49.470;2023-10-19T03:51:27;6.40;74.09
70867;HTU21D;58487;53.474;49.470;2023-10-19T03:54:08;6.41;73.28
70867;HTU21D;58487;53.474;49.470;2023-10-19T03:56:49;6.43;75.41
70867;HTU21D;58487;53.474;49.470;2023-10-19T03:59:18;6.45;75.11
70867;HTU21D;58487;53.474;49.470;2023-10-19T04:01:46;6.44;74.20
70867;HTU21D;58487;53.474;49.470;2023-10-19T04:04:13;6.51;75.07
70867;HTU21D;58487;53.474;49.470;2023-10-19T04:06:42;6.55;74.90
70867;HTU21D;58487;53.474;49.470;2023-10-19T04:09:14;6.56;75.24
70867;HTU21D;58487;53.474;49.470;2023-10-19T04:11:43;6.50;75.36
70867;HTU21D;58487;53.474;49.470;2023-10-19T04:14:17;6.58;74.25
70867;HTU21D;58487;53.474;49.470;2023-10-19T04:16:43;6.57;73.81
70867;HTU21D;58487;53.474;49.470;2023-10-19T04:19:10;6.61;74.01
70867;HTU21D;58487;53.474;49.470;2023-10-19T04:21:37;6.69;73.90
70867;HTU21D;58487;53.474;49.470;2023-10-19T04:24:10;6.76;74.02
70867;HTU21D;58487;53.474;49.470;2023-10-19T04:26:37;6.76;75.33
70867;HTU21D;58487;53.474;49.470;2023-10-19T04:29:06;6.79;75.69
70867;HTU21D;58487;53.474;49.470;2023-10-19T04:31:43;6.78;75.41
70867;HTU21D;58487;53.474;49.470;2023-10-19T04:34:25;6.71;76.07
70867;HTU21D;58487;53.474;49.470;2023-10-19T04:36:51;6.76;76.92
70867;HTU21D;58487;53.474;49.470;2023-10-19T04:39:18;6.71;72.57
70867;HTU21D;58487;53.474;49.470;2023-10-19T04:41:46;6.63;73.41
70867;HTU21D;58487;53.474;49.470;2023-10-19T04:44:15;6.69;73.83
70867;HTU21D;58487;53.474;49.470;2023-10-19T04:46:42;6.73;74.20
70867;HTU21D;58487;53.474;49.470;2023-10-19T04:49:08;6.79;74.07
70867;HTU21D;58487;53.474;49.470;2023-10-19T04:51:34;6.84;73.61
70867;HTU21D;58487;53.474;49.470;2023-10-19T04:54:05;6.87;74.50
70867;HTU21D;58487;53.474;49.470;2023-10-19T04:56:34;6.93;73.77
70867;HTU21D;58487;53.474;49.470;2023-10-19T04:59:02;6.89;74.77
70867;HTU21D;58487;53.474;49.470;2023-10-19T05:01:28;6.99;75.39
70867;HTU21D;58487;53.474;49.470;2023-10-19T05:03:54;7.03;75.07
70867;HTU21D;58487;53.474;49.470;2023-10-19T05:06:20;7.09;76.71
70867;HTU21D;58487;53.474;49.470;2023-10-19T05:08:48;7.07;76.21
70867;HTU21D;58487;53.474;49.470;2023-10-19T05:11:14;7.10;74.58
70867;HTU21D;58487;53.474;49.470;2023-10-19T05:13:40;7.05;73.92
70867;HTU21D;58487;53.474;49.470;2023-10-19T05:16:06;7.02;74.88
70867;HTU21D;58487;53.474;49.470;2023-10-19T05:18:33;6.99;74.41
70867;HTU21D;58487;53.474;49.470;2023-10-19T05:20:59;6.99;75.44
70867;HTU21D;58487;53.474;49.470;2023-10-19T05:23:27;6.97;73.60
70867;HTU21D;58487;53.474;49.470;2023-10-19T05:26:05;6.98;73.67
70867;HTU21D;58487;53.474;49.470;2023-10-19T05:28:32;6.97;75.41
70867;HTU21D;58487;53.474;49.470;2023-10-19T05:30:58;6.95;75.13
70867;HTU21D;58487;53.474;49.470;2023-10-19T05:33:27;6.88;78.91
70867;HTU21D;58487;53.474;49.470;2023-10-19T05:35:55;6.87;79.15
70867;HTU21D;58487;53.474;49.470;2023-10-19T05:38:21;6.93;76.80
70867;HTU21D;58487;53.474;49.470;2023-10-19T05:40:48;6.98;77.73
70867;HTU21D;58487;53.474;49.470;2023-10-19T05:43:16;6.97;76.95
70867;HTU21D;58487;53.474;49.470;2023-10-19T05:45:41;7.02;78.66
70867;HTU21D;58487;53.474;49.470;2023-10-19T05:48:07;6.99;75.95
70867;HTU21D;58487;53.474;49.470;2023-10-19T05:50:34;7.01;74.18
70867;HTU21D;58487;53.474;49.470;2023-10-19T05:53:03;6.91;73.73
70867;HTU21D;58487;53.474;49.470;2023-10-19T05:55:31;7.01;73.83
70867;HTU21D;58487;53.474;49.470;2023-10-19T05:57:57;7.05;78.56
70867;HTU21D;58487;53.474;49.470;2023-10-19T06:00:23;7.09;75.38
70867;HTU21D;58487;53.474;49.470;2023-10-19T06:02:51;7.11;77.22
70867;HTU21D;58487;53.474;49.470;2023-10-19T06:05:18;7.12;76.59
70867;HTU21D;58487;53.474;49.470;2023-10-19T06:07:46;7.15;76.89
70867;HTU21D;58487;53.474;49.470;2023-10-19T06:10:18;7.26;77.61
70867;HTU21D;58487;53.474;49.470;2023-10-19T06:12:50;7.32;76.35
70867;HTU21D;58487;53.474;49.470;2023-10-19T06:15:18;7.39;74.15
70867;HTU21D;58487;53.474;49.470;2023-10-19T06:17:46;7.44;75.48
70867;HTU21D;58487;53.474;49.470;2023-10-19T06:20:14;7.55;77.18
70867;HTU21D;58487;53.474;49.470;2023-10-19T06:22:53;7.68;74.45
70867;HTU21D;58487;53.474;49.470;2023-10-19T06:25:23;7.78;70.65
70867;HTU21D;58487;53.474;49.470;2023-10-19T06:27:50;7.88;75.35
70867;HTU21D;58487;53.474;49.470;2023-10-19T06:30:17;7.87;75.36
70867;HTU21D;58487;53.474;49.470;2023-10-19T06:33:02;7.85;73.39
70867;HTU21D;58487;53.474;49.470;2023-10-19T06:35:32;7.91;73.97
70867;HTU21D;58487;53.474;49.470;2023-10-19T06:37:59;7.92;73.76
70867;HTU21D;58487;53.474;49.470;2023-10-19T06:40:26;7.97;75.01
70867;HTU21D;58487;53.474;49.470;2023-10-19T06:42:55;7.98;73.43
70867;HTU21D;58487;53.474;49.470;2023-10-19T06:45:21;8.04;73.08
70867;HTU21D;58487;53.474;49.470;2023-10-19T06:47:49;7.99;73.03
70867;HTU21D;58487;53.474;49.470;2023-10-19T06:50:17;8.12;73.28
70867;HTU21D;58487;53.474;49.470;2023-10-19T06:52:44;8.15;75.25
70867;HTU21D;58487;53.474;49.470;2023-10-19T06:55:12;8.05;74.06
70867;HTU21D;58487;53.474;49.470;2023-10-19T06:57:43;8.17;75.48
70867;HTU21D;58487;53.474;49.470;2023-10-19T07:00:14;8.16;76.41
70867;HTU21D;58487;53.474;49.470;2023-10-19T07:02:43;8.17;74.88
70867;HTU21D;58487;53.474;49.470;2023-10-19T07:05:14;8.24;77.33
70867;HTU21D;58487;53.474;49.470;2023-10-19T07:07:44;8.41;80.02
70867;HTU21D;58487;53.474;49.470;2023-10-19T07:10:13;8.39;76.66
70867;HTU21D;58487;53.474;49.470;2023-10-19T07:12:41;8.35;74.16
70867;HTU21D;58487;53.474;49.470;2023-10-19T07:15:08;8.39;74.58
70867;HTU21D;58487;53.474;49.470;2023-10-19T07:17:35;8.27;74.06
70867;HTU21D;58487;53.474;49.470;2023-10-19T07:20:06;8.28;78.20
70867;HTU21D;58487;53.474;49.470;2023-10-19T07:22:35;8.22;78.34
70867;HTU21D;58487;53.474;49.470;2023-10-19T07:25:05;8.21;76.08
70867;HTU21D;58487;53.474;49.470;2023-10-19T07:27:32;8.15;75.05
70867;HTU21D;58487;53.474;49.470;2023-10-19T07:30:00;8.15;76.40
70867;HTU21D;58487;53.474;49.470;2023-10-19T07:32:26;8.20;79.07
70867;HTU21D;58487;53.474;49.470;2023-10-19T07:34:54;8.22;77.55
70867;HTU21D;58487;53.474;49.470;2023-10-19T07:37:21;8.29;75.44
70867;HTU21D;58487;53.474;49.470;2023-10-19T07:39:47;8.36;76.24
70867;HTU21D;58487;53.474;49.470;2023-10-19T07:42:16;8.39;75.26
70867;HTU21D;58487;53.474;49.470;2023-10-19T07:44:42;8.44;75.12
70867;HTU21D;58487;53.474;49.470;2023-10-19T07:47:11;8.49;74.35
70867;HTU21D;58487;53.474;49.470;2023-10-19T07:49:38;8.53;74.51
70867;HTU21D;58487;53.474;49.470;2023-10-19T07:52:05;8.50;78.10
70867;HTU21D;58487;53.474;49.470;2023-10-19T07:54:34;8.52;78.23
70867;HTU21D;58487;53.474;49.470;2023-10-19T07:57:04;8.64;78.34
70867;HTU21D;58487;53.474;49.470;2023-10-19T07:59:33;8.67;75.36
70867;HTU21D;58487;53.474;49.470;2023-10-19T08:02:02;8.67;74.99
70867;HTU21D;58487;53.474;49.470;2023-10-19T08:04:29;8.72;76.51
70867;HTU21D;58487;53.474;49.470;2023-10-19T08:06:55;8.82;74.85
70867;HTU21D;58487;53.474;49.470;2023-10-19T08:09:22;8.85;73.38
70867;HTU21D;58487;53.474;49.470;2023-10-19T08:11:50;8.94;74.62
70867;HTU21D;58487;53.474;49.470;2023-10-19T08:14:24;9.05;72.83
70867;HTU21D;58487;53.474;49.470;2023-10-19T08:16:51;9.16;74.49
70867;HTU21D;58487;53.474;49.470;2023-10-19T08:19:17;9.18;72.54
70867;HTU21D;58487;53.474;49.470;2023-10-19T08:21:44;9.29;72.99
70867;HTU21D;58487;53.474;49.470;2023-10-19T08:24:10;9.47;71.31
70867;HTU21D;58487;53.474;49.470;2023-10-19T08:26:40;9.53;70.83
70867;HTU21D;58487;53.474;49.470;2023-10-19T08:29:08;9.57;72.95
70867;HTU21D;58487;53.474;49.470;2023-10-19T08:31:42;9.34;68.97
70867;HTU21D;58487;53.474;49.470;2023-10-19T08:34:08;9.49;71.35
70867;HTU21D;58487;53.474;49.470;2023-10-19T08:36:40;9.56;70.58
70867;HTU21D;58487;53.474;49.470;2023-10-19T08:39:07;9.62;69.16
70867;HTU21D;58487;53.474;49.470;2023-10-19T08:41:36;9.61;71.71
70867;HTU21D;58487;53.474;49.470;2023-10-19T08:44:04;9.61;73.57
70867;HTU21D;58487;53.474;49.470;2023-10-19T08:46:45;9.68;68.41
70867;HTU21D;58487;53.474;49.470;2023-10-19T08:49:14;9.71;66.86
70867;HTU21D;58487;53.474;49.470;2023-10-19T08:51:44;9.64;68.02
70867;HTU21D;58487;53.474;49.470;2023-10-19T08:54:14;9.64;65.04
70867;HTU21D;58487;53.474;49.470;2023-10-19T08:56:42;9.66;71.41
70867;HTU21D;58487;53.474;49.470;2023-10-19T08:59:08;9.42;73.21
70867;HTU21D;58487;53.474;49.470;2023-10-19T09:01:37;9.34;71.18
70867;HTU21D;58487;53.474;49.470;2023-10-19T09:04:04;9.34;72.25
70867;HTU21D;58487;53.474;49.470;2023-10-19T09:06:40;9.27;71.78
70867;HTU21D;58487;53.474;49.470;2023-10-19T09:09:12;9.20;72.84
70867;HTU21D;58487;53.474;49.470;2023-10-19T09:11:48;9.14;72.20
70867;HTU21D;58487;53.474;49.470;2023-10-19T09:14:15;9.33;72.23
70867;HTU21D;58487;53.474;49.470;2023-10-19T09:16:54;9.50;71.02
70867;HTU21D;58487;53.474;49.470;2023-10-19T09:19:43;9.94;70.23
70867;HTU21D;58487;53.474;49.470;2023-10-19T09:22:10;10.20;62.29
70867;HTU21D;58487;53.474;49.470;2023-10-19T09:24:48;10.38;62.12
70867;HTU21D;58487;53.474;49.470;2023-10-19T09:27:19;10.40;65.04
70867;HTU21D;58487;53.474;49.470;2023-10-19T09:29:47;10.11;65.98
70867;HTU21D;58487;53.474;49.470;2023-10-19T09:32:13;10.11;64.85
70867;HTU21D;58487;53.474;49.470;2023-10-19T09:34:40;10.54;67.16
70867;HTU21D;58487;53.474;49.470;2023-10-19T09:37:10;10.38;63.07
70867;HTU21D;58487;53.474;49.470;2023-10-19T09:39:37;10.23;66.01
70867;HTU21D;58487;53.474;49.470;2023-10-19T09:42:07;10.09;62.76
70867;HTU21D;58487;53.474;49.470;2023-10-19T09:44:42;10.12;64.06
70867;HTU21D;58487;53.474;49.470;2023-10-19T09:47:13;10.01;67.37
70867;HTU21D;58487;53.474;49.470;2023-10-19T09:49:44;10.05;63.02
70867;HTU21D;58487;53.474;49.470;2023-10-19T09:52:11;10.09;66.57
70867;HTU21D;58487;53.474;49.470;2023-10-19T09:57:30;9.86;72.38
70867;HTU21D;58487;53.474;49.470;2023-10-19T10:00:02;9.96;69.27
70867;HTU21D;58487;53.474;49.470;2023-10-19T10:02:54;9.86;66.40
70867;HTU21D;58487;53.474;49.470;2023-10-19T10:10:47;9.77;63.65
70867;HTU21D;58487;53.474;49.470;2023-10-19T10:15:55;9.63;65.62
70867;HTU21D;58487;53.474;49.470;2023-10-19T10:18:23;9.55;72.49
70867;HTU21D;58487;53.474;49.470;2023-10-19T10:21:10;9.55;72.56
70867;HTU21D;58487;53.474;49.470;2023-10-19T10:24:03;9.64;66.43
70867;HTU21D;58487;53.474;49.470;2023-10-19T10:26:31;9.66;71.13
70867;HTU21D;58487;53.474;49.470;2023-10-19T10:29:15;9.72;69.69
70867;HTU21D;58487;53.474;49.470;2023-10-19T10:31:48;9.66;65.96
70867;HTU21D;58487;53.474;49.470;2023-10-19T10:34:46;9.21;73.03
70867;HTU21D;58487;53.474;49.470;2023-10-19T10:37:14;9.31;72.44
70867;HTU21D;58487;53.474;49.470;2023-10-19T10:39:41;9.41;66.40
70867;HTU21D;58487;53.474;49.470;2023-10-19T10:42:10;9.69;64.53
70867;HTU21D;58487;53.474;49.470;2023-10-19T10:44:47;9.65;62.41
70867;HTU21D;58487;53.474;49.470;2023-10-19T10:47:23;9.68;68.42
70867;HTU21D;58487;53.474;49.470;2023-10-19T10:49:57;9.49;69.68
70867;HTU21D;58487;53.474;49.470;2023-10-19T10:52:32;9.67;65.53
70867;HTU21D;58487;53.474;49.470;2023-10-19T10:55:02;9.37;63.78
70867;HTU21D;58487;53.474;49.470;2023-10-19T10:57:33;9.26;68.42
70867;HTU21D;58487;53.474;49.470;2023-10-19T11:00:08;9.51;70.11
70867;HTU21D;58487;53.474;49.470;2023-10-19T11:02:36;9.37;66.78
70867;HTU21D;58487;53.474;49.470;2023-10-19T11:05:06;8.70;68.22
70867;HTU21D;58487;53.474;49.470;2023-10-19T11:07:41;9.42;78.37
70867;HTU21D;58487;53.474;49.470;2023-10-19T11:10:08;9.04;70.33
70867;HTU21D;58487;53.474;49.470;2023-10-19T11:12:37;9.45;67.61
70867;HTU21D;58487;53.474;49.470;2023-10-19T11:15:03;9.18;67.90
70867;HTU21D;58487;53.474;49.470;2023-10-19T11:17:42;9.22;70.40
70867;HTU21D;58487;53.474;49.470;2023-10-19T11:20:09;9.05;69.04
70867;HTU21D;58487;53.474;49.470;2023-10-19T11:22:48;9.16;65.19
70867;HTU21D;58487;53.474;49.470;2023-10-19T11:25:26;9.40;71.06
70867;HTU21D;58487;53.474;49.470;2023-10-19T11:27:58;9.46;67.73
70867;HTU21D;58487;53.474;49.470;2023-10-19T11:30:28;9.41;67.66
70867;HTU21D;58487;53.474;49.470;2023-10-19T11:32:55;9.34;67.24
70867;HTU21D;58487;53.474;49.470;2023-10-19T11:35:26;9.50;65.34
70867;HTU21D;58487;53.474;49.470;2023-10-19T11:37:55;9.45;67.21
70867;HTU21D;58487;53.474;49.470;2023-10-19T11:40:22;9.46;62.06
70867;HTU21D;58487;53.474;49.470;2023-10-19T11:42:49;9.50;57.67
70867;HTU21D;58487;53.474;49.470;2023-10-19T11:45:15;9.46;64.92
70867;HTU21D;58487;53.474;49.470;2023-10-19T11:47:45;9.39;65.11
70867;HTU21D;58487;53.474;49.470;2023-10-19T11:50:14;9.08;68.58
70867;HTU21D;58487;53.474;49.470;2023-10-19T11:52:42;9.31;66.16
70867;HTU21D;58487;53.474;49.470;2023-10-19T11:55:08;9.34;58.18
70867;HTU21D;58487;53.474;49.470;2023-10-19T11:57:35;9.34;66.41
70867;HTU21D;58487;53.474;49.470;2023-10-19T12:00:05;9.31;66.38
70867;HTU21D;58487;53.474;49.470;2023-10-19T12:02:35;9.05;70.09
70867;HTU21D;58487;53.474;49.470;2023-10-19T12:05:06;9.33;64.76
70867;HTU21D;58487;53.474;49.470;2023-10-19T12:07:39;9.32;69.67
70867;HTU21D;58487;53.474;49.470;2023-10-19T12:10:10;9.35;66.45
70867;HTU21D;58487;53.474;49.470;2023-10-19T12:12:36;9.34;68.00
70867;HTU21D;58487;53.474;49.470;2023-10-19T12:15:06;9.17;68.39
70867;HTU21D;58487;53.474;49.470;2023-10-19T12:17:32;9.20;66.36
70867;HTU21D;58487;53.474;49.470;2023-10-19T12:19:59;9.03;87.22
70867;HTU21D;58487;53.474;49.470;2023-10-19T12:22:25;9.19;64.03
70867;HTU21D;58487;53.474;49.470;2023-10-19T12:24:57;9.23;65.89
70867;HTU21D;58487;53.474;49.470;2023-10-19T12:27:24;8.76;65.30
70867;HTU21D;58487;53.474;49.470;2023-10-19T12:29:54;9.21;64.59
70867;HTU21D;58487;53.474;49.470;2023-10-19T12:32:21;8.81;66.82
70867;HTU21D;58487;53.474;49.470;2023-10-19T12:34:47;8.65;65.51
70867;HTU21D;58487;53.474;49.470;2023-10-19T12:37:19;9.25;66.59
70867;HTU21D;58487;53.474;49.470;2023-10-19T12:39:46;9.29;63.77
70867;HTU21D;58487;53.474;49.470;2023-10-19T12:42:15;8.67;64.76
70867;HTU21D;58487;53.474;49.470;2023-10-19T12:44:41;9.30;62.20
70867;HTU21D;58487;53.474;49.470;2023-10-19T12:47:08;9.30;61.78
70867;HTU21D;58487;53.474;49.470;2023-10-19T12:49:43;9.17;70.07
70867;HTU21D;58487;53.474;49.470;2023-10-19T12:52:11;9.34;55.06
70867;HTU21D;58487;53.474;49.470;2023-10-19T12:54:38;9.35;60.46
70867;HTU21D;58487;53.474;49.470;2023-10-19T12:57:04;9.34;59.99
70867;HTU21D;58487;53.474;49.470;2023-10-19T12:59:34;9.20;64.37
70867;HTU21D;58487;53.474;49.470;2023-10-19T13:02:03;9.05;63.63
70867;HTU21D;58487;53.474;49.470;2023-10-19T13:04:30;9.37;59.33
70867;HTU21D;58487;53.474;49.470;2023-10-19T13:07:00;9.41;57.60
70867;HTU21D;58487;53.474;49.470;2023-10-19T13:09:28;9.40;59.96
70867;HTU21D;58487;53.474;49.470;2023-10-19T13:12:01;9.37;57.08
70867;HTU21D;58487;53.474;49.470;2023-10-19T13:14:27;9.41;60.49
70867;HTU21D;58487;53.474;49.470;2023-10-19T13:16:53;9.41;56.07
70867;HTU21D;58487;53.474;49.470;2023-10-19T13:19:23;9.42;58.53
70867;HTU21D;58487;53.474;49.470;2023-10-19T13:21:52;9.42;57.18
70867;HTU21D;58487;53.474;49.470;2023-10-19T13:24:19;9.45;60.59
70867;HTU21D;58487;53.474;49.470;2023-10-19T13:26:47;9.39;59.39
70867;HTU21D;58487;53.474;49.470;2023-10-19T13:29:13;9.45;59.98
70867;HTU21D;58487;53.474;49.470;2023-10-19T13:31:41;9.21;64.21
70867;HTU21D;58487;53.474;49.470;2023-10-19T13:34:10;9.39;57.04
70867;HTU21D;58487;53.474;49.470;2023-10-19T13:36:36;9.37;60.67
70867;HTU21D;58487;53.474;49.470;2023-10-19T13:39:04;9.38;59.18
70867;HTU21D;58487;53.474;49.470;2023-10-19T13:41:32;9.39;59.15
70867;HTU21D;58487;53.474;49.470;2023-10-19T13:43:58;9.39;58.07
70867;HTU21D;58487;53.474;49.470;2023-10-19T13:46:23;9.36;61.09
70867;HTU21D;58487;53.474;49.470;2023-10-19T13:48:50;9.36;65.53
70867;HTU21D;58487;53.474;49.470;2023-10-19T13:51:17;9.25;63.08
70867;HTU21D;58487;53.474;49.470;2023-10-19T13:53:44;9.15;62.23
70867;HTU21D;58487;53.474;49.470;2023-10-19T13:56:12;9.07;62.95
70867;HTU21D;58487;53.474;49.470;2023-10-19T13:58:38;8.72;60.31
70867;HTU21D;58487;53.474;49.470;2023-10-19T14:01:08;9.25;71.53
70867;HTU21D;58487;53.474;49.470;2023-10-19T14:03:35;9.29;61.36
70867;HTU21D;58487;53.474;49.470;2023-10-19T14:06:03;8.94;64.50
70867;HTU21D;58487;53.474;49.470;2023-10-19T14:08:29;9.05;60.64
70867;HTU21D;58487;53.474;49.470;2023-10-19T14:11:03;9.08;62.93
70867;HTU21D;58487;53.474;49.470;2023-10-19T14:13:29;9.29;57.12
70867;HTU21D;58487;53.474;49.470;2023-10-19T14:15:55;9.25;56.94
70867;HTU21D;58487;53.474;49.470;2023-10-19T14:18:21;9.32;60.95
70867;HTU21D;58487;53.474;49.470;2023-10-19T14:20:48;8.83;61.37
70867;HTU21D;58487;53.474;49.470;2023-10-19T14:23:14;9.09;60.02
70867;HTU21D;58487;53.474;49.470;2023-10-19T14:25:40;9.31;58.71
70867;HTU21D;58487;53.474;49.470;2023-10-19T14:28:07;9.32;59.55
70867;HTU21D;58487;53.474;49.470;2023-10-19T14:30:33;9.33;49.79
70867;HTU21D;58487;53.474;49.470;2023-10-19T14:33:00;9.32;56.10
70867;HTU21D;58487;53.474;49.470;2023-10-19T14:35:26;9.20;62.54
70867;HTU21D;58487;53.474;49.470;2023-10-19T14:37:54;9.23;61.02
70867;HTU21D;58487;53.474;49.470;2023-10-19T14:40:27;9.29;58.14
70867;HTU21D;58487;53.474;49.470;2023-10-19T14:42:55;9.12;60.60
70867;HTU21D;58487;53.474;49.470;2023-10-19T14:45:23;9.02;57.46
70867;HTU21D;58487;53.474;49.470;2023-10-19T14:47:54;9.15;59.32
70867;HTU21D;58487;53.474;49.470;2023-10-19T14:50:22;8.86;62.49
70867;HTU21D;58487;53.474;49.470;2023-10-19T14:52:49;9.12;78.86
70867;HTU21D;58487;53.474;49.470;2023-10-19T14:55:17;8.72;60.77
70867;HTU21D;58487;53.474;49.470;2023-10-19T14:57:45;9.07;79.53
70867;HTU21D;58487;53.474;49.470;2023-10-19T15:00:12;9.06;60.57
70867;HTU21D;58487;53.474;49.470;2023-10-19T15:02:51;9.11;57.56
70867;HTU21D;58487;53.474;49.470;2023-10-19T15:05:18;9.03;55.68
70867;HTU21D;58487;53.474;49.470;2023-10-19T15:07:47;9.07;60.19
70867;HTU21D;58487;53.474;49.470;2023-10-19T15:10:23;9.05;58.06
70867;HTU21D;58487;53.474;49.470;2023-10-19T15:12:56;8.96;59.56
70867;HTU21D;58487;53.474;49.470;2023-10-19T15:15:22;8.88;62.76
70867;HTU21D;58487;53.474;49.470;2023-10-19T15:17:48;9.15;59.01
70867;HTU21D;58487;53.474;49.470;2023-10-19T15:20:20;8.87;60.48
70867;HTU21D;58487;53.474;49.470;2023-10-19T15:22:46;9.05;65.14
70867;HTU21D;58487;53.474;49.470;2023-10-19T15:25:13;8.67;59.93
70867;HTU21D;58487;53.474;49.470;2023-10-19T15:27:42;8.62;61.15
70867;HTU21D;58487;53.474;49.470;2023-10-19T15:30:10;8.90;60.34
70867;HTU21D;58487;53.474;49.470;2023-10-19T15:32:40;8.74;60.15
70867;HTU21D;58487;53.474;49.470;2023-10-19T15:35:11;8.80;58.99
70867;HTU21D;58487;53.474;49.470;2023-10-19T15:37:38;8.91;58.72
70867;HTU21D;58487;53.474;49.470;2023-10-19T15:40:05;8.91;58.95
70867;HTU21D;58487;53.474;49.470;2023-10-19T15:42:31;8.89;61.25